ROMMA est une association bénévole à but non lucratif. Votre soutien est indispensable : ADHERER à ROMMA ou FAIRE un DON

Chambon - (38, Isère)

Oisans (2460 m)   Longitude: 06° 10' 42" E   Latitude: 45° 01' 32" N Station partenaire n°803
 

Détail journalier du     <<     >>

Température Humidité Vent Dir Rafale Dir. rafale Neige 1 Neige 2
Heure (°C) (%) (km/h) (km/h) (cm) (cm)
01:00 3.91640SO70SO184239
02:00 3.51941SSO67SO184239
03:00 3.81638SSO65SO184239
04:00 1.72232SO56SO184240
05:00 1.83333SSO61SO184240
06:00 1.63633SO56SO184238
07:00 1.03728SSO46SSO184238
08:00 1.43226SSO48SSO184238
09:00 2.53229SSO53SSO183238
10:00 3.23129SSO70SO183237
11:00 3.43122SO56SO183237
12:00 2.72634SO78OSO183237
13:00 2.03746OSO75OSO183234
14:00 1.64447OSO81OSO183235
15:00 1.05742OSO73OSO183234
16:00 0.26547OSO79OSO183233
17:00 -0.97643OSO77OSO183225
18:00 -2.59629OSO57OSO183225
19:00 -3.89731SSO59O182224
20:00 -6.79631OSO57OSO189232
21:00 -7.39619OSO39OSO192231
22:00 -8.29519SO30SO192231
23:00 -9.09517SO37OSO192231
minuit -9.6955SO27SO191231

Graphique du 17-03-2019

 

Serveur OMMA